sensor_id;sensor_type;location;lat;lon;timestamp;pressure;altitude;pressure_sealevel;temperature;humidity
75650;BME280;64245;51.282;22.494;2023-07-29T00:02:00;98364.41;;;15.56;100.00
75650;BME280;64245;51.282;22.494;2023-07-29T00:04:26;98357.72;;;15.58;100.00
75650;BME280;64245;51.282;22.494;2023-07-29T00:06:51;98346.53;;;15.46;100.00
75650;BME280;64245;51.282;22.494;2023-07-29T00:09:17;98355.31;;;15.48;100.00
75650;BME280;64245;51.282;22.494;2023-07-29T00:11:43;98358.88;;;15.49;100.00
75650;BME280;64245;51.282;22.494;2023-07-29T00:14:09;98358.25;;;15.47;100.00
75650;BME280;64245;51.282;22.494;2023-07-29T00:16:34;98367.03;;;15.49;100.00
75650;BME280;64245;51.282;22.494;2023-07-29T00:19:02;98363.41;;;15.42;100.00
75650;BME280;64245;51.282;22.494;2023-07-29T00:21:27;98361.16;;;15.45;100.00
75650;BME280;64245;51.282;22.494;2023-07-29T00:23:53;98373.22;;;15.43;100.00
75650;BME280;64245;51.282;22.494;2023-07-29T00:26:19;98368.63;;;15.37;100.00
75650;BME280;64245;51.282;22.494;2023-07-29T00:28:45;98370.91;;;15.40;100.00
75650;BME280;64245;51.282;22.494;2023-07-29T00:31:11;98363.13;;;15.30;100.00
75650;BME280;64245;51.282;22.494;2023-07-29T00:33:37;98367.97;;;15.35;100.00
75650;BME280;64245;51.282;22.494;2023-07-29T00:36:03;98365.97;;;15.22;100.00
75650;BME280;64245;51.282;22.494;2023-07-29T00:38:29;98367.63;;;15.16;100.00
75650;BME280;64245;51.282;22.494;2023-07-29T00:40:57;98370.53;;;15.15;100.00
75650;BME280;64245;51.282;22.494;2023-07-29T00:43:23;98363.03;;;15.17;100.00
75650;BME280;64245;51.282;22.494;2023-07-29T00:45:49;98365.09;;;15.15;100.00
75650;BME280;64245;51.282;22.494;2023-07-29T00:48:15;98364.84;;;15.10;100.00
75650;BME280;64245;51.282;22.494;2023-07-29T00:50:41;98381.13;;;15.10;100.00
75650;BME280;64245;51.282;22.494;2023-07-29T00:53:07;98386.66;;;15.02;100.00
75650;BME280;64245;51.282;22.494;2023-07-29T00:55:32;98380.41;;;15.01;100.00
75650;BME280;64245;51.282;22.494;2023-07-29T00:57:58;98387.50;;;15.02;100.00
75650;BME280;64245;51.282;22.494;2023-07-29T01:00:25;98381.03;;;15.03;100.00
75650;BME280;64245;51.282;22.494;2023-07-29T01:02:52;98385.06;;;15.07;100.00
75650;BME280;64245;51.282;22.494;2023-07-29T01:05:20;98387.00;;;15.13;100.00
75650;BME280;64245;51.282;22.494;2023-07-29T01:07:59;98383.53;;;15.26;100.00
75650;BME280;64245;51.282;22.494;2023-07-29T01:10:46;98390.50;;;15.35;100.00
75650;BME280;64245;51.282;22.494;2023-07-29T01:13:24;98391.81;;;15.39;100.00
75650;BME280;64245;51.282;22.494;2023-07-29T01:15:55;98393.72;;;15.45;100.00
75650;BME280;64245;51.282;22.494;2023-07-29T01:18:28;98390.53;;;15.42;100.00
75650;BME280;64245;51.282;22.494;2023-07-29T01:21:03;98390.16;;;15.45;100.00
75650;BME280;64245;51.282;22.494;2023-07-29T01:23:34;98391.63;;;15.47;100.00
75650;BME280;64245;51.282;22.494;2023-07-29T01:26:00;98392.28;;;15.49;100.00
75650;BME280;64245;51.282;22.494;2023-07-29T01:28:27;98391.00;;;15.45;100.00
75650;BME280;64245;51.282;22.494;2023-07-29T01:31:10;98384.34;;;15.48;100.00
75650;BME280;64245;51.282;22.494;2023-07-29T01:36:44;98391.00;;;15.45;100.00
75650;BME280;64245;51.282;22.494;2023-07-29T01:39:11;98384.28;;;15.41;100.00
75650;BME280;64245;51.282;22.494;2023-07-29T01:41:37;98387.19;;;15.40;100.00
75650;BME280;64245;51.282;22.494;2023-07-29T01:44:05;98395.00;;;15.49;100.00
75650;BME280;64245;51.282;22.494;2023-07-29T01:46:33;98390.66;;;15.55;100.00
75650;BME280;64245;51.282;22.494;2023-07-29T01:48:59;98403.22;;;15.56;100.00
75650;BME280;64245;51.282;22.494;2023-07-29T01:51:24;98400.50;;;15.56;100.00
75650;BME280;64245;51.282;22.494;2023-07-29T01:53:50;98396.34;;;15.60;100.00
75650;BME280;64245;51.282;22.494;2023-07-29T01:56:16;98398.88;;;15.62;100.00
75650;BME280;64245;51.282;22.494;2023-07-29T01:58:42;98399.75;;;15.69;100.00
75650;BME280;64245;51.282;22.494;2023-07-29T02:01:07;98397.50;;;15.72;100.00
75650;BME280;64245;51.282;22.494;2023-07-29T02:03:33;98398.31;;;15.73;100.00
75650;BME280;64245;51.282;22.494;2023-07-29T02:05:59;98403.50;;;15.68;100.00
75650;BME280;64245;51.282;22.494;2023-07-29T02:08:24;98401.63;;;15.68;100.00
75650;BME280;64245;51.282;22.494;2023-07-29T02:10:50;98409.38;;;15.71;100.00
75650;BME280;64245;51.282;22.494;2023-07-29T02:13:16;98406.09;;;15.76;100.00
75650;BME280;64245;51.282;22.494;2023-07-29T02:15:41;98388.91;;;15.69;100.00
75650;BME280;64245;51.282;22.494;2023-07-29T02:18:07;98414.06;;;15.84;100.00
75650;BME280;64245;51.282;22.494;2023-07-29T02:20:33;98409.00;;;15.81;100.00
75650;BME280;64245;51.282;22.494;2023-07-29T02:22:59;98412.81;;;15.86;100.00
75650;BME280;64245;51.282;22.494;2023-07-29T02:25:24;98418.09;;;15.95;100.00
75650;BME280;64245;51.282;22.494;2023-07-29T02:27:50;98415.78;;;15.92;100.00
75650;BME280;64245;51.282;22.494;2023-07-29T02:30:16;98423.94;;;15.98;100.00
75650;BME280;64245;51.282;22.494;2023-07-29T02:32:42;98419.59;;;16.04;100.00
75650;BME280;64245;51.282;22.494;2023-07-29T02:35:07;98422.13;;;16.05;100.00
75650;BME280;64245;51.282;22.494;2023-07-29T02:37:33;98421.53;;;16.10;100.00
75650;BME280;64245;51.282;22.494;2023-07-29T02:39:59;98428.44;;;16.12;100.00
75650;BME280;64245;51.282;22.494;2023-07-29T02:42:25;98429.47;;;16.11;100.00
75650;BME280;64245;51.282;22.494;2023-07-29T02:44:51;98425.31;;;16.15;100.00
75650;BME280;64245;51.282;22.494;2023-07-29T02:47:17;98425.72;;;16.19;100.00
75650;BME280;64245;51.282;22.494;2023-07-29T02:49:42;98433.53;;;16.29;100.00
75650;BME280;64245;51.282;22.494;2023-07-29T02:52:08;98438.75;;;16.30;100.00
75650;BME280;64245;51.282;22.494;2023-07-29T02:54:34;98437.72;;;16.31;100.00
75650;BME280;64245;51.282;22.494;2023-07-29T02:57:00;98442.06;;;16.26;100.00
75650;BME280;64245;51.282;22.494;2023-07-29T02:59:26;98432.63;;;16.15;100.00
75650;BME280;64245;51.282;22.494;2023-07-29T03:01:52;98433.94;;;16.26;100.00
75650;BME280;64245;51.282;22.494;2023-07-29T03:04:18;98435.56;;;16.20;100.00
75650;BME280;64245;51.282;22.494;2023-07-29T03:06:44;98435.16;;;16.23;100.00
75650;BME280;64245;51.282;22.494;2023-07-29T03:09:10;98450.03;;;16.27;100.00
75650;BME280;64245;51.282;22.494;2023-07-29T03:11:36;98445.19;;;16.22;100.00
75650;BME280;64245;51.282;22.494;2023-07-29T03:14:01;98446.28;;;16.28;100.00
75650;BME280;64245;51.282;22.494;2023-07-29T03:16:27;98452.16;;;16.32;100.00
75650;BME280;64245;51.282;22.494;2023-07-29T03:18:53;98458.44;;;16.32;100.00
75650;BME280;64245;51.282;22.494;2023-07-29T03:21:19;98446.66;;;16.25;100.00
75650;BME280;64245;51.282;22.494;2023-07-29T03:23:44;98461.56;;;16.36;100.00
75650;BME280;64245;51.282;22.494;2023-07-29T03:26:10;98463.22;;;16.37;100.00
75650;BME280;64245;51.282;22.494;2023-07-29T03:28:41;98466.38;;;16.40;100.00
75650;BME280;64245;51.282;22.494;2023-07-29T03:31:07;98472.22;;;16.37;100.00
75650;BME280;64245;51.282;22.494;2023-07-29T03:33:33;98480.63;;;16.42;100.00
75650;BME280;64245;51.282;22.494;2023-07-29T03:35:59;98478.94;;;16.41;100.00
75650;BME280;64245;51.282;22.494;2023-07-29T03:38:25;98488.53;;;16.37;100.00
75650;BME280;64245;51.282;22.494;2023-07-29T03:40:50;98482.88;;;16.32;100.00
75650;BME280;64245;51.282;22.494;2023-07-29T03:43:16;98493.13;;;16.37;100.00
75650;BME280;64245;51.282;22.494;2023-07-29T03:45:42;98483.72;;;16.33;100.00
75650;BME280;64245;51.282;22.494;2023-07-29T03:48:08;98502.16;;;16.44;100.00
75650;BME280;64245;51.282;22.494;2023-07-29T03:50:35;98494.41;;;16.41;100.00
75650;BME280;64245;51.282;22.494;2023-07-29T03:53:01;98498.19;;;16.46;100.00
75650;BME280;64245;51.282;22.494;2023-07-29T03:55:27;98496.97;;;16.55;100.00
75650;BME280;64245;51.282;22.494;2023-07-29T03:57:56;98502.22;;;16.50;100.00
75650;BME280;64245;51.282;22.494;2023-07-29T04:00:23;98506.59;;;16.51;100.00
75650;BME280;64245;51.282;22.494;2023-07-29T04:02:48;98506.81;;;16.50;100.00
75650;BME280;64245;51.282;22.494;2023-07-29T04:05:14;98503.69;;;16.53;100.00
75650;BME280;64245;51.282;22.494;2023-07-29T04:07:40;98501.81;;;16.53;100.00
75650;BME280;64245;51.282;22.494;2023-07-29T04:10:07;98511.00;;;16.59;100.00
75650;BME280;64245;51.282;22.494;2023-07-29T04:12:32;98503.69;;;16.59;100.00
75650;BME280;64245;51.282;22.494;2023-07-29T04:14:59;98508.94;;;16.61;100.00
75650;BME280;64245;51.282;22.494;2023-07-29T04:17:24;98511.53;;;16.69;100.00
75650;BME280;64245;51.282;22.494;2023-07-29T04:19:50;98514.56;;;16.59;100.00
75650;BME280;64245;51.282;22.494;2023-07-29T04:22:16;98513.41;;;16.75;100.00
75650;BME280;64245;51.282;22.494;2023-07-29T04:24:42;62744.75;;;-141.09;100.00
75650;BME280;64245;51.282;22.494;2023-07-29T04:27:08;62744.75;;;-141.09;100.00
75650;BME280;64245;51.282;22.494;2023-07-29T04:29:34;62744.75;;;-141.09;100.00
75650;BME280;64245;51.282;22.494;2023-07-29T04:32:02;62744.75;;;-141.09;100.00
75650;BME280;64245;51.282;22.494;2023-07-29T04:34:28;62744.75;;;-141.09;100.00
75650;BME280;64245;51.282;22.494;2023-07-29T04:36:57;62744.75;;;-141.09;100.00
75650;BME280;64245;51.282;22.494;2023-07-29T04:39:23;62744.75;;;-141.09;100.00
75650;BME280;64245;51.282;22.494;2023-07-29T04:41:49;62744.75;;;-141.09;100.00
75650;BME280;64245;51.282;22.494;2023-07-29T04:44:14;62744.75;;;-141.09;100.00
75650;BME280;64245;51.282;22.494;2023-07-29T04:46:40;62744.75;;;-141.09;100.00
75650;BME280;64245;51.282;22.494;2023-07-29T04:49:06;62744.75;;;-141.09;100.00
75650;BME280;64245;51.282;22.494;2023-07-29T04:51:32;62744.75;;;-141.09;100.00
75650;BME280;64245;51.282;22.494;2023-07-29T04:53:58;62744.75;;;-141.09;100.00
75650;BME280;64245;51.282;22.494;2023-07-29T04:56:24;62744.75;;;-141.09;100.00
75650;BME280;64245;51.282;22.494;2023-07-29T04:58:50;62744.75;;;-141.09;100.00
75650;BME280;64245;51.282;22.494;2023-07-29T05:01:16;62744.75;;;-141.09;100.00
75650;BME280;64245;51.282;22.494;2023-07-29T05:03:42;62744.75;;;-141.09;100.00
75650;BME280;64245;51.282;22.494;2023-07-29T05:06:07;62744.75;;;-141.09;100.00
75650;BME280;64245;51.282;22.494;2023-07-29T05:08:33;62744.75;;;-141.09;100.00
75650;BME280;64245;51.282;22.494;2023-07-29T05:10:59;62744.75;;;-141.09;100.00
75650;BME280;64245;51.282;22.494;2023-07-29T05:13:25;62744.75;;;-141.09;100.00
75650;BME280;64245;51.282;22.494;2023-07-29T05:15:51;62744.75;;;-141.09;100.00
75650;BME280;64245;51.282;22.494;2023-07-29T05:18:17;62744.75;;;-141.09;100.00
75650;BME280;64245;51.282;22.494;2023-07-29T05:20:43;62744.75;;;-141.09;100.00
75650;BME280;64245;51.282;22.494;2023-07-29T05:23:09;62744.75;;;-141.09;100.00
75650;BME280;64245;51.282;22.494;2023-07-29T05:25:34;62744.75;;;-141.09;100.00
75650;BME280;64245;51.282;22.494;2023-07-29T05:28:01;62744.75;;;-141.09;100.00
75650;BME280;64245;51.282;22.494;2023-07-29T05:30:27;62744.75;;;-141.09;100.00
75650;BME280;64245;51.282;22.494;2023-07-29T05:32:57;62744.75;;;-141.09;100.00
75650;BME280;64245;51.282;22.494;2023-07-29T05:35:23;62744.75;;;-141.09;100.00
75650;BME280;64245;51.282;22.494;2023-07-29T05:37:49;62744.75;;;-141.09;100.00
75650;BME280;64245;51.282;22.494;2023-07-29T05:40:15;62744.75;;;-141.09;100.00
75650;BME280;64245;51.282;22.494;2023-07-29T05:42:41;62744.75;;;-141.09;100.00
75650;BME280;64245;51.282;22.494;2023-07-29T05:45:07;62744.75;;;-141.09;100.00
75650;BME280;64245;51.282;22.494;2023-07-29T05:47:33;62744.75;;;-141.09;100.00
75650;BME280;64245;51.282;22.494;2023-07-29T05:49:59;62744.75;;;-141.09;100.00
75650;BME280;64245;51.282;22.494;2023-07-29T05:52:27;62744.75;;;-141.09;100.00
75650;BME280;64245;51.282;22.494;2023-07-29T05:54:53;62744.75;;;-141.09;100.00
75650;BME280;64245;51.282;22.494;2023-07-29T05:57:19;62744.75;;;-141.09;100.00
75650;BME280;64245;51.282;22.494;2023-07-29T05:59:44;62744.75;;;-141.09;100.00
75650;BME280;64245;51.282;22.494;2023-07-29T06:02:10;62744.75;;;-141.09;100.00
75650;BME280;64245;51.282;22.494;2023-07-29T06:04:36;62744.75;;;-141.09;100.00
75650;BME280;64245;51.282;22.494;2023-07-29T06:07:02;62744.75;;;-141.09;100.00
75650;BME280;64245;51.282;22.494;2023-07-29T06:09:27;62744.75;;;-141.09;100.00
75650;BME280;64245;51.282;22.494;2023-07-29T06:11:57;62744.75;;;-141.09;100.00
75650;BME280;64245;51.282;22.494;2023-07-29T06:14:22;62744.75;;;-141.09;100.00
75650;BME280;64245;51.282;22.494;2023-07-29T06:16:48;62744.75;;;-141.09;100.00
75650;BME280;64245;51.282;22.494;2023-07-29T06:19:13;62744.75;;;-141.09;100.00
75650;BME280;64245;51.282;22.494;2023-07-29T06:21:40;62744.75;;;-141.09;100.00
75650;BME280;64245;51.282;22.494;2023-07-29T06:24:05;62744.75;;;-141.09;100.00
75650;BME280;64245;51.282;22.494;2023-07-29T06:26:31;62744.75;;;-141.09;100.00
75650;BME280;64245;51.282;22.494;2023-07-29T06:28:57;62744.75;;;-141.09;100.00
75650;BME280;64245;51.282;22.494;2023-07-29T06:31:23;62744.75;;;-141.09;100.00
75650;BME280;64245;51.282;22.494;2023-07-29T06:33:49;62744.75;;;-141.09;100.00
75650;BME280;64245;51.282;22.494;2023-07-29T06:36:15;62744.75;;;-141.09;100.00
75650;BME280;64245;51.282;22.494;2023-07-29T06:38:40;62744.75;;;-141.09;100.00
75650;BME280;64245;51.282;22.494;2023-07-29T06:41:07;62744.75;;;-141.09;100.00
75650;BME280;64245;51.282;22.494;2023-07-29T06:43:33;62744.75;;;-141.09;100.00
75650;BME280;64245;51.282;22.494;2023-07-29T06:45:59;62744.75;;;-141.09;100.00
75650;BME280;64245;51.282;22.494;2023-07-29T06:48:24;62744.75;;;-141.09;100.00
75650;BME280;64245;51.282;22.494;2023-07-29T06:50:50;62744.75;;;-141.09;100.00
75650;BME280;64245;51.282;22.494;2023-07-29T06:53:16;62744.75;;;-141.09;100.00
75650;BME280;64245;51.282;22.494;2023-07-29T06:55:43;62744.75;;;-141.09;100.00
75650;BME280;64245;51.282;22.494;2023-07-29T06:58:09;62744.75;;;-141.09;100.00
75650;BME280;64245;51.282;22.494;2023-07-29T07:00:35;62744.75;;;-141.09;100.00
75650;BME280;64245;51.282;22.494;2023-07-29T07:03:00;62744.75;;;-141.09;100.00
75650;BME280;64245;51.282;22.494;2023-07-29T07:05:26;62744.75;;;-141.09;100.00
75650;BME280;64245;51.282;22.494;2023-07-29T07:07:52;62744.75;;;-141.09;100.00
75650;BME280;64245;51.282;22.494;2023-07-29T07:10:18;62744.75;;;-141.09;100.00
75650;BME280;64245;51.282;22.494;2023-07-29T07:12:44;62744.75;;;-141.09;100.00
75650;BME280;64245;51.282;22.494;2023-07-29T07:15:10;62744.75;;;-141.09;100.00
75650;BME280;64245;51.282;22.494;2023-07-29T07:17:35;62744.75;;;-141.09;100.00
75650;BME280;64245;51.282;22.494;2023-07-29T07:20:02;62744.75;;;-141.09;100.00
75650;BME280;64245;51.282;22.494;2023-07-29T07:22:27;62744.75;;;-141.09;100.00
75650;BME280;64245;51.282;22.494;2023-07-29T07:24:53;62744.75;;;-141.09;100.00
75650;BME280;64245;51.282;22.494;2023-07-29T07:27:19;62744.75;;;-141.09;100.00
75650;BME280;64245;51.282;22.494;2023-07-29T07:29:44;62744.75;;;-141.09;100.00
75650;BME280;64245;51.282;22.494;2023-07-29T07:32:10;62744.75;;;-141.09;100.00
75650;BME280;64245;51.282;22.494;2023-07-29T07:34:36;62744.75;;;-141.09;100.00
75650;BME280;64245;51.282;22.494;2023-07-29T07:37:01;62744.75;;;-141.09;100.00
75650;BME280;64245;51.282;22.494;2023-07-29T07:39:30;62744.75;;;-141.09;100.00
75650;BME280;64245;51.282;22.494;2023-07-29T07:41:55;62744.75;;;-141.09;100.00
75650;BME280;64245;51.282;22.494;2023-07-29T07:44:21;62744.75;;;-141.09;100.00
75650;BME280;64245;51.282;22.494;2023-07-29T07:46:47;62744.75;;;-141.09;100.00
75650;BME280;64245;51.282;22.494;2023-07-29T07:49:12;62744.75;;;-141.09;100.00
75650;BME280;64245;51.282;22.494;2023-07-29T07:51:38;62744.75;;;-141.09;100.00
75650;BME280;64245;51.282;22.494;2023-07-29T07:54:04;62744.75;;;-141.09;100.00
75650;BME280;64245;51.282;22.494;2023-07-29T07:56:30;62744.75;;;-141.09;100.00
75650;BME280;64245;51.282;22.494;2023-07-29T07:58:56;62744.75;;;-141.09;100.00
75650;BME280;64245;51.282;22.494;2023-07-29T08:01:21;62744.75;;;-141.09;100.00
75650;BME280;64245;51.282;22.494;2023-07-29T08:03:47;62744.75;;;-141.09;100.00
75650;BME280;64245;51.282;22.494;2023-07-29T08:06:13;62744.75;;;-141.09;100.00
75650;BME280;64245;51.282;22.494;2023-07-29T08:08:39;62744.75;;;-141.09;100.00
75650;BME280;64245;51.282;22.494;2023-07-29T08:11:05;62744.75;;;-141.09;100.00
75650;BME280;64245;51.282;22.494;2023-07-29T08:13:31;62744.75;;;-141.09;100.00
75650;BME280;64245;51.282;22.494;2023-07-29T08:15:56;62744.75;;;-141.09;100.00
75650;BME280;64245;51.282;22.494;2023-07-29T08:18:22;62744.75;;;-141.09;100.00
75650;BME280;64245;51.282;22.494;2023-07-29T08:20:56;62744.75;;;-141.09;100.00
75650;BME280;64245;51.282;22.494;2023-07-29T08:23:26;62744.75;;;-141.09;100.00
75650;BME280;64245;51.282;22.494;2023-07-29T08:25:56;62744.75;;;-141.09;100.00
75650;BME280;64245;51.282;22.494;2023-07-29T08:28:35;62744.75;;;-141.09;100.00
75650;BME280;64245;51.282;22.494;2023-07-29T08:31:01;62744.75;;;-141.09;100.00
75650;BME280;64245;51.282;22.494;2023-07-29T08:33:27;62744.75;;;-141.09;100.00
75650;BME280;64245;51.282;22.494;2023-07-29T08:35:53;62744.75;;;-141.09;100.00
75650;BME280;64245;51.282;22.494;2023-07-29T08:38:19;62744.75;;;-141.09;100.00
75650;BME280;64245;51.282;22.494;2023-07-29T08:40:50;62744.75;;;-141.09;100.00
75650;BME280;64245;51.282;22.494;2023-07-29T08:43:19;62744.75;;;-141.09;100.00
75650;BME280;64245;51.282;22.494;2023-07-29T08:45:46;62744.75;;;-141.09;100.00
75650;BME280;64245;51.282;22.494;2023-07-29T08:48:15;62744.75;;;-141.09;100.00
75650;BME280;64245;51.282;22.494;2023-07-29T08:50:44;62744.75;;;-141.09;100.00
75650;BME280;64245;51.282;22.494;2023-07-29T08:53:10;62744.75;;;-141.09;100.00
75650;BME280;64245;51.282;22.494;2023-07-29T08:55:36;62744.75;;;-141.09;100.00
75650;BME280;64245;51.282;22.494;2023-07-29T08:58:02;62744.75;;;-141.09;100.00
75650;BME280;64245;51.282;22.494;2023-07-29T09:00:28;62744.75;;;-141.09;100.00
75650;BME280;64245;51.282;22.494;2023-07-29T09:02:55;62744.75;;;-141.09;100.00
75650;BME280;64245;51.282;22.494;2023-07-29T09:05:21;62744.75;;;-141.09;100.00
75650;BME280;64245;51.282;22.494;2023-07-29T09:07:47;62744.75;;;-141.09;100.00
75650;BME280;64245;51.282;22.494;2023-07-29T09:10:13;62744.75;;;-141.09;100.00
75650;BME280;64245;51.282;22.494;2023-07-29T09:12:40;62744.75;;;-141.09;100.00
75650;BME280;64245;51.282;22.494;2023-07-29T09:15:06;62744.75;;;-141.09;100.00
75650;BME280;64245;51.282;22.494;2023-07-29T09:17:35;62744.75;;;-141.09;100.00
75650;BME280;64245;51.282;22.494;2023-07-29T09:20:01;62744.75;;;-141.09;100.00
75650;BME280;64245;51.282;22.494;2023-07-29T09:22:27;62744.75;;;-141.09;100.00
75650;BME280;64245;51.282;22.494;2023-07-29T09:24:53;62744.75;;;-141.09;100.00
75650;BME280;64245;51.282;22.494;2023-07-29T09:27:28;62744.75;;;-141.09;100.00
75650;BME280;64245;51.282;22.494;2023-07-29T09:29:57;62744.75;;;-141.09;100.00
75650;BME280;64245;51.282;22.494;2023-07-29T09:32:25;62744.75;;;-141.09;100.00
75650;BME280;64245;51.282;22.494;2023-07-29T09:34:51;62744.75;;;-141.09;100.00
75650;BME280;64245;51.282;22.494;2023-07-29T09:37:23;62744.75;;;-141.09;100.00
75650;BME280;64245;51.282;22.494;2023-07-29T09:39:49;62744.75;;;-141.09;100.00
75650;BME280;64245;51.282;22.494;2023-07-29T09:42:20;62744.75;;;-141.09;100.00
75650;BME280;64245;51.282;22.494;2023-07-29T09:44:48;62744.75;;;-141.09;100.00
75650;BME280;64245;51.282;22.494;2023-07-29T09:47:22;62744.75;;;-141.09;100.00
75650;BME280;64245;51.282;22.494;2023-07-29T09:49:48;62744.75;;;-141.09;100.00
75650;BME280;64245;51.282;22.494;2023-07-29T09:52:16;62744.75;;;-141.09;100.00
75650;BME280;64245;51.282;22.494;2023-07-29T09:54:43;62744.75;;;-141.09;100.00
75650;BME280;64245;51.282;22.494;2023-07-29T09:57:11;62744.75;;;-141.09;100.00
75650;BME280;64245;51.282;22.494;2023-07-29T09:59:38;62744.75;;;-141.09;100.00
75650;BME280;64245;51.282;22.494;2023-07-29T10:02:05;62744.75;;;-141.09;100.00
75650;BME280;64245;51.282;22.494;2023-07-29T10:04:35;62744.75;;;-141.09;100.00
75650;BME280;64245;51.282;22.494;2023-07-29T10:07:01;62744.75;;;-141.09;100.00
75650;BME280;64245;51.282;22.494;2023-07-29T10:09:28;62744.75;;;-141.09;100.00
75650;BME280;64245;51.282;22.494;2023-07-29T10:11:54;62744.75;;;-141.09;100.00
75650;BME280;64245;51.282;22.494;2023-07-29T10:14:20;62744.75;;;-141.09;100.00
75650;BME280;64245;51.282;22.494;2023-07-29T10:16:47;62744.75;;;-141.09;100.00
75650;BME280;64245;51.282;22.494;2023-07-29T10:19:13;62744.75;;;-141.09;100.00
75650;BME280;64245;51.282;22.494;2023-07-29T10:21:42;62744.75;;;-141.09;100.00
75650;BME280;64245;51.282;22.494;2023-07-29T10:24:15;62744.75;;;-141.09;100.00
75650;BME280;64245;51.282;22.494;2023-07-29T10:26:46;62744.75;;;-141.09;100.00
75650;BME280;64245;51.282;22.494;2023-07-29T10:29:13;62744.75;;;-141.09;100.00
75650;BME280;64245;51.282;22.494;2023-07-29T10:31:43;62744.75;;;-141.09;100.00
75650;BME280;64245;51.282;22.494;2023-07-29T10:34:09;62744.75;;;-141.09;100.00
75650;BME280;64245;51.282;22.494;2023-07-29T10:36:36;62744.75;;;-141.09;100.00
75650;BME280;64245;51.282;22.494;2023-07-29T10:39:02;62744.75;;;-141.09;100.00
75650;BME280;64245;51.282;22.494;2023-07-29T10:41:57;62744.75;;;-141.09;100.00
75650;BME280;64245;51.282;22.494;2023-07-29T10:47:26;62744.75;;;-141.09;100.00
75650;BME280;64245;51.282;22.494;2023-07-29T10:49:55;62744.75;;;-141.09;100.00
75650;BME280;64245;51.282;22.494;2023-07-29T10:52:51;62744.75;;;-141.09;100.00
75650;BME280;64245;51.282;22.494;2023-07-29T10:55:34;62744.75;;;-141.09;100.00
75650;BME280;64245;51.282;22.494;2023-07-29T10:58:07;62744.75;;;-141.09;100.00
75650;BME280;64245;51.282;22.494;2023-07-29T11:00:34;62744.75;;;-141.09;100.00
75650;BME280;64245;51.282;22.494;2023-07-29T11:03:02;62744.75;;;-141.09;100.00
75650;BME280;64245;51.282;22.494;2023-07-29T11:05:50;62744.75;;;-141.09;100.00
75650;BME280;64245;51.282;22.494;2023-07-29T11:08:27;62744.75;;;-141.09;100.00
75650;BME280;64245;51.282;22.494;2023-07-29T11:11:05;62744.75;;;-141.09;100.00
75650;BME280;64245;51.282;22.494;2023-07-29T11:13:33;62744.75;;;-141.09;100.00
75650;BME280;64245;51.282;22.494;2023-07-29T11:15:59;62744.75;;;-141.09;100.00
75650;BME280;64245;51.282;22.494;2023-07-29T11:18:30;62744.75;;;-141.09;100.00
75650;BME280;64245;51.282;22.494;2023-07-29T11:20:56;62744.75;;;-141.09;100.00
75650;BME280;64245;51.282;22.494;2023-07-29T11:23:33;62744.75;;;-141.09;100.00
75650;BME280;64245;51.282;22.494;2023-07-29T11:26:01;62744.75;;;-141.09;100.00
75650;BME280;64245;51.282;22.494;2023-07-29T11:28:28;62744.75;;;-141.09;100.00
75650;BME280;64245;51.282;22.494;2023-07-29T11:30:55;62744.75;;;-141.09;100.00
75650;BME280;64245;51.282;22.494;2023-07-29T11:33:26;62744.75;;;-141.09;100.00
75650;BME280;64245;51.282;22.494;2023-07-29T11:35:54;62744.75;;;-141.09;100.00
75650;BME280;64245;51.282;22.494;2023-07-29T11:38:21;62744.75;;;-141.09;100.00
75650;BME280;64245;51.282;22.494;2023-07-29T11:40:55;62744.75;;;-141.09;100.00
75650;BME280;64245;51.282;22.494;2023-07-29T11:43:21;62744.75;;;-141.09;100.00
75650;BME280;64245;51.282;22.494;2023-07-29T11:45:47;62744.75;;;-141.09;100.00
75650;BME280;64245;51.282;22.494;2023-07-29T11:48:12;62744.75;;;-141.09;100.00
75650;BME280;64245;51.282;22.494;2023-07-29T11:50:38;62744.75;;;-141.09;100.00
75650;BME280;64245;51.282;22.494;2023-07-29T11:53:04;62744.75;;;-141.09;100.00
75650;BME280;64245;51.282;22.494;2023-07-29T11:55:30;62744.75;;;-141.09;100.00
75650;BME280;64245;51.282;22.494;2023-07-29T11:57:57;62744.75;;;-141.09;100.00
75650;BME280;64245;51.282;22.494;2023-07-29T12:00:22;62744.75;;;-141.09;100.00
75650;BME280;64245;51.282;22.494;2023-07-29T12:02:49;62744.75;;;-141.09;100.00
75650;BME280;64245;51.282;22.494;2023-07-29T12:05:16;62744.75;;;-141.09;100.00
75650;BME280;64245;51.282;22.494;2023-07-29T12:07:44;62744.75;;;-141.09;100.00
75650;BME280;64245;51.282;22.494;2023-07-29T12:10:10;62744.75;;;-141.09;100.00
75650;BME280;64245;51.282;22.494;2023-07-29T12:12:47;62744.75;;;-141.09;100.00
75650;BME280;64245;51.282;22.494;2023-07-29T12:15:13;62744.75;;;-141.09;100.00
75650;BME280;64245;51.282;22.494;2023-07-29T12:17:40;62744.75;;;-141.09;100.00
75650;BME280;64245;51.282;22.494;2023-07-29T12:20:11;62744.75;;;-141.09;100.00
75650;BME280;64245;51.282;22.494;2023-07-29T12:22:37;62744.75;;;-141.09;100.00
75650;BME280;64245;51.282;22.494;2023-07-29T12:25:03;62744.75;;;-141.09;100.00
75650;BME280;64245;51.282;22.494;2023-07-29T12:27:30;62744.75;;;-141.09;100.00
75650;BME280;64245;51.282;22.494;2023-07-29T12:29:55;62744.75;;;-141.09;100.00
75650;BME280;64245;51.282;22.494;2023-07-29T12:32:25;62744.75;;;-141.09;100.00
75650;BME280;64245;51.282;22.494;2023-07-29T12:34:53;62744.75;;;-141.09;100.00